Terminal Aerodrome Forecast
Issued by NWS Melbourne, FL

Home | Current Version | Previous Version | Text Only | Print | Product List | Glossary On
Versions: 1 2 3 4 5 6 7 8 9 10 11 12 13 14 15 16 17
000
FTUS42 KMLB 150100 AAB
TAFMLB
TAF AMD
KMLB 150119Z 1501/1524 00000KT P6SM SCT050 SCT120
     FM150400 18002KT P6SM FEW020
     FM151400 08005KT P6SM VCSH SCT035
     FM152000 09005KT P6SM FEW035=

USA.gov is the U.S. government's official web portal to all federal, state and local government web resources and services.